ANZ86 NZAA-RPLL
Flight info
| Callsign | ANZ86 |
|---|---|
| Flight time | N/A |
| Altitude | 34000 |
| Route | SALAG A346 IGLET/N0487F360 A346 ELDEK/N0484F380 A346 OVRON Q67 CS B473 OLENG/N0480F400 B473 LAIYA LAIYA3R |
| Aircraft | B772/H-SDE2E3FGHIJ5LORVWXY/LB1D1 |
Departure
| Time | N/A |
|---|---|
| Airport | Auckland International Airport (NZAA) |
Arrival
| Time | 2026-05-01 15:14 |
|---|---|
| Airport | Ninoy Aquino International Airport (RPLL) |
| Time | Latitude | Longitude | Altitude | Speed | Heading |
|---|---|---|---|---|---|
| 2026-05-01 14:45 | 12.74153 | 121.97512 | 34422 ft | 485 kts | 324° |
| 2026-05-01 14:46 | 12.76947 | 121.95565 | 33461 ft | 497 kts | 324° |
| 2026-05-01 14:46 | 12.82710 | 121.91550 | 31599 ft | 501 kts | 324° |
| 2026-05-01 14:46 | 12.85609 | 121.89530 | 30634 ft | 503 kts | 324° |
| 2026-05-01 14:47 | 12.88498 | 121.87516 | 30009 ft | 497 kts | 325° |
| 2026-05-01 14:47 | 12.91344 | 121.85532 | 29492 ft | 489 kts | 325° |
| 2026-05-01 14:47 | 12.94137 | 121.83584 | 28924 ft | 483 kts | 325° |
| 2026-05-01 14:48 | 12.99639 | 121.79745 | 27722 ft | 475 kts | 325° |
| 2026-05-01 14:48 | 13.02379 | 121.77832 | 27117 ft | 471 kts | 325° |
| 2026-05-01 14:48 | 13.07743 | 121.74086 | 25901 ft | 464 kts | 326° |
| 2026-05-01 14:49 | 13.13021 | 121.70398 | 25153 ft | 445 kts | 326° |
| 2026-05-01 14:49 | 13.18220 | 121.66763 | 24299 ft | 464 kts | 326° |
| 2026-05-01 14:50 | 13.21774 | 121.64278 | 23406 ft | 459 kts | 326° |
| 2026-05-01 14:50 | 13.28708 | 121.59425 | 21781 ft | 449 kts | 326° |
| 2026-05-01 14:51 | 13.31307 | 121.57605 | 21157 ft | 446 kts | 326° |
| 2026-05-01 14:51 | 13.36391 | 121.54044 | 19870 ft | 442 kts | 327° |
| 2026-05-01 14:52 | 13.41456 | 121.50494 | 18572 ft | 438 kts | 327° |
| 2026-05-01 14:52 | 13.43970 | 121.48731 | 17925 ft | 435 kts | 327° |
| 2026-05-01 14:52 | 13.48827 | 121.45323 | 17536 ft | 407 kts | 327° |
| 2026-05-01 14:53 | 13.51136 | 121.43702 | 17413 ft | 393 kts | 328° |
| 2026-05-01 14:53 | 13.53415 | 121.42166 | 17403 ft | 403 kts | 333° |
| 2026-05-01 14:53 | 13.56019 | 121.40930 | 17403 ft | 416 kts | 340° |
| 2026-05-01 14:53 | 13.58723 | 121.39821 | 17398 ft | 417 kts | 340° |
| 2026-05-01 14:54 | 13.61420 | 121.38721 | 17217 ft | 410 kts | 341° |
| 2026-05-01 14:54 | 13.64067 | 121.37643 | 16768 ft | 407 kts | 341° |
| 2026-05-01 14:54 | 13.66709 | 121.36567 | 16226 ft | 407 kts | 341° |
| 2026-05-01 14:54 | 13.69327 | 121.35500 | 15730 ft | 405 kts | 341° |
| 2026-05-01 14:55 | 13.71939 | 121.34435 | 15280 ft | 402 kts | 341° |
| 2026-05-01 14:55 | 13.74554 | 121.33369 | 14988 ft | 397 kts | 341° |
| 2026-05-01 14:55 | 13.77121 | 121.32322 | 14952 ft | 396 kts | 341° |
| 2026-05-01 14:55 | 13.79667 | 121.31282 | 14949 ft | 389 kts | 341° |
| 2026-05-01 14:56 | 13.82192 | 121.30252 | 14966 ft | 387 kts | 341° |
| 2026-05-01 14:56 | 13.84683 | 121.29236 | 14974 ft | 385 kts | 341° |
| 2026-05-01 14:56 | 13.87190 | 121.28213 | 14964 ft | 385 kts | 341° |
| 2026-05-01 14:56 | 13.89702 | 121.27187 | 14975 ft | 385 kts | 341° |
| 2026-05-01 14:57 | 13.92181 | 121.26175 | 14983 ft | 385 kts | 341° |
| 2026-05-01 14:57 | 13.97170 | 121.24138 | 14994 ft | 385 kts | 341° |
| 2026-05-01 14:57 | 13.99681 | 121.23112 | 14997 ft | 385 kts | 341° |
| 2026-05-01 14:58 | 14.02176 | 121.22091 | 14825 ft | 380 kts | 340° |
| 2026-05-01 14:58 | 14.04528 | 121.20866 | 14389 ft | 384 kts | 329° |
| 2026-05-01 14:58 | 14.06620 | 121.19138 | 14032 ft | 385 kts | 317° |
| 2026-05-01 14:58 | 14.08305 | 121.16972 | 13973 ft | 389 kts | 304° |
| 2026-05-01 14:59 | 14.09524 | 121.14457 | 13962 ft | 392 kts | 292° |
| 2026-05-01 14:59 | 14.10215 | 121.11755 | 13961 ft | 393 kts | 279° |
| 2026-05-01 14:59 | 14.10365 | 121.08903 | 13960 ft | 395 kts | 269° |
| 2026-05-01 14:59 | 14.10230 | 121.06091 | 13960 ft | 395 kts | 267° |
| 2026-05-01 15:00 | 14.09931 | 121.00536 | 13357 ft | 388 kts | 267° |
| 2026-05-01 15:00 | 14.09774 | 120.97747 | 12801 ft | 387 kts | 267° |
| 2026-05-01 15:00 | 14.09620 | 120.95014 | 12286 ft | 385 kts | 267° |
| 2026-05-01 15:01 | 14.09466 | 120.92260 | 11806 ft | 382 kts | 267° |
| 2026-05-01 15:01 | 14.09319 | 120.89571 | 11337 ft | 379 kts | 267° |
| 2026-05-01 15:01 | 14.09170 | 120.86852 | 10861 ft | 376 kts | 267° |
| 2026-05-01 15:01 | 14.09026 | 120.84203 | 10415 ft | 372 kts | 267° |
| 2026-05-01 15:02 | 14.08879 | 120.81567 | 9932 ft | 370 kts | 267° |
| 2026-05-01 15:02 | 14.08828 | 120.80666 | 9778 ft | 369 kts | 267° |
| 2026-05-01 15:02 | 14.08578 | 120.76331 | 9042 ft | 358 kts | 268° |
| 2026-05-01 15:02 | 14.08737 | 120.73855 | 8652 ft | 338 kts | 287° |
| 2026-05-01 15:03 | 14.09693 | 120.71763 | 8321 ft | 317 kts | 310° |
| 2026-05-01 15:03 | 14.11280 | 120.70336 | 8027 ft | 294 kts | 335° |
| 2026-05-01 15:03 | 14.13200 | 120.69720 | 7558 ft | 283 kts | 355° |
| 2026-05-01 15:03 | 14.15138 | 120.69479 | 7032 ft | 281 kts | 357° |
| 2026-05-01 15:04 | 14.17081 | 120.69289 | 6500 ft | 278 kts | 0° |
| 2026-05-01 15:04 | 14.19014 | 120.69244 | 5972 ft | 276 kts | 3° |
| 2026-05-01 15:04 | 14.20925 | 120.69228 | 5453 ft | 274 kts | 3° |
| 2026-05-01 15:04 | 14.22832 | 120.69214 | 5070 ft | 267 kts | 3° |
| 2026-05-01 15:05 | 14.24656 | 120.69200 | 5013 ft | 263 kts | 3° |
| 2026-05-01 15:05 | 14.26490 | 120.69187 | 4999 ft | 262 kts | 3° |
| 2026-05-01 15:05 | 14.28320 | 120.69174 | 4975 ft | 259 kts | 3° |
| 2026-05-01 15:05 | 14.30137 | 120.69161 | 4671 ft | 260 kts | 3° |
| 2026-05-01 15:06 | 14.31915 | 120.69430 | 4336 ft | 255 kts | 26° |
| 2026-05-01 15:06 | 14.33293 | 120.70496 | 4098 ft | 244 kts | 56° |
| 2026-05-01 15:06 | 14.34137 | 120.71948 | 4091 ft | 230 kts | 63° |
| 2026-05-01 15:06 | 14.34889 | 120.73373 | 4066 ft | 220 kts | 63° |
| 2026-05-01 15:07 | 14.35627 | 120.74761 | 3811 ft | 222 kts | 63° |
| 2026-05-01 15:07 | 14.36390 | 120.76162 | 3579 ft | 222 kts | 63° |
| 2026-05-01 15:07 | 14.37148 | 120.77525 | 3473 ft | 216 kts | 62° |
| 2026-05-01 15:07 | 14.37906 | 120.78870 | 3189 ft | 219 kts | 62° |
| 2026-05-01 15:08 | 14.38674 | 120.80225 | 3007 ft | 216 kts | 62° |
| 2026-05-01 15:08 | 14.39442 | 120.81580 | 2991 ft | 219 kts | 62° |
| 2026-05-01 15:08 | 14.40211 | 120.82941 | 2979 ft | 217 kts | 62° |
| 2026-05-01 15:08 | 14.40930 | 120.84212 | 3004 ft | 193 kts | 62° |
| 2026-05-01 15:09 | 14.41557 | 120.85322 | 2979 ft | 164 kts | 62° |
| 2026-05-01 15:09 | 14.42084 | 120.86260 | 2964 ft | 138 kts | 63° |
| 2026-05-01 15:09 | 14.42550 | 120.87100 | 2814 ft | 133 kts | 63° |
| 2026-05-01 15:09 | 14.43011 | 120.87927 | 2659 ft | 130 kts | 63° |
| 2026-05-01 15:10 | 14.43459 | 120.88727 | 2500 ft | 127 kts | 63° |
| 2026-05-01 15:10 | 14.44286 | 120.90205 | 2190 ft | 113 kts | 63° |
| 2026-05-01 15:10 | 14.44677 | 120.90904 | 2048 ft | 113 kts | 63° |
| 2026-05-01 15:11 | 14.45069 | 120.91605 | 1902 ft | 112 kts | 63° |
| 2026-05-01 15:11 | 14.45906 | 120.93101 | 1588 ft | 127 kts | 62° |
| 2026-05-01 15:11 | 14.46357 | 120.93905 | 1414 ft | 129 kts | 63° |
| 2026-05-01 15:12 | 14.46801 | 120.94704 | 1250 ft | 128 kts | 61° |
| 2026-05-01 15:12 | 14.47708 | 120.96320 | 918 ft | 132 kts | 62° |
| 2026-05-01 15:12 | 14.48169 | 120.97146 | 741 ft | 133 kts | 63° |
| 2026-05-01 15:13 | 14.49580 | 120.99637 | 251 ft | 133 kts | 62° |
| 2026-05-01 15:14 | 14.50406 | 121.01138 | 88 ft | 84 kts | 59° |
| 2026-05-01 15:14 | 14.50638 | 121.01553 | 88 ft | 58 kts | 57° |
| 2026-05-01 15:14 | 14.51006 | 121.02188 | 88 ft | 45 kts | 43° |
| 2026-05-01 15:15 | 14.51141 | 121.02168 | 88 ft | 18 kts | 243° |
| 2026-05-01 15:15 | 14.51070 | 121.01997 | 88 ft | 14 kts | 293° |
| 2026-05-01 15:16 | 14.51312 | 121.01739 | 88 ft | 38 kts | 314° |
| 2026-05-01 15:16 | 14.51534 | 121.01576 | 88 ft | 9 kts | 37° |
| 2026-05-01 15:17 | 14.51568 | 121.01610 | 88 ft | 0 kts | 44° |